Time;durP1;ratioP1;P1;durP2;ratioP2;P2;SDS_P1;SDS_P2;PMS_P1;PMS_P2;Temp;Humidity;BMP_temperature;BMP_pressure;BME280_temperature;BME280_humidity;BME280_pressure;Samples;Min_cycle;Max_cycle;Signal;HPM_P1;HPM_P2
2022/04/13 00:04:58;;;;;;;12.77;7.07;;;;;;;10.00;52.28;96332.84;10368176;28;20576;-53
2022/04/13 00:09:59;;;;;;;16.27;7.27;;;;;;;9.97;52.01;96322.69;10367883;28;20209;-53
2022/04/13 00:14:59;;;;;;;13.23;6.87;;;;;;;10.16;51.42;96318.13;10367837;28;20221;-51
2022/04/13 00:20:00;;;;;;;10.33;5.67;;;;;;;10.19;51.32;96307.31;10367837;28;20205;-53
2022/04/13 00:25:00;;;;;;;14.93;6.73;;;;;;;10.20;51.49;96308.97;10367401;28;20217;-54
2022/04/13 00:30:01;;;;;;;14.50;5.87;;;;;;;10.26;50.93;96287.38;10367296;28;20201;-58
2022/04/13 00:35:04;;;;;;;14.70;6.63;;;;;;;10.27;51.11;96293.41;10366978;28;20298;-51
2022/04/13 00:40:08;;;;;;;8.33;5.27;;;;;;;10.20;51.31;96290.63;10367140;28;20193;-52
2022/04/13 00:45:08;;;;;;;10.67;5.40;;;;;;;10.30;50.44;96291.25;10365887;28;20647;-56
2022/04/13 00:50:09;;;;;;;18.07;6.10;;;;;;;10.28;51.31;96297.66;10367052;28;20225;-52
2022/04/13 00:55:13;;;;;;;11.60;7.27;;;;;;;10.17;51.46;96296.19;10366470;28;20224;-51
2022/04/13 01:00:15;;;;;;;12.90;7.27;;;;;;;10.12;51.51;96322.03;10365289;28;20221;-53
2022/04/13 01:05:16;;;;;;;16.80;5.43;;;;;;;10.11;51.76;96320.41;10366065;28;20627;-54
2022/04/13 01:10:17;;;;;;;12.33;7.23;;;;;;;10.00;51.91;96330.22;10364698;28;20228;-53
2022/04/13 01:15:17;;;;;;;11.37;6.57;;;;;;;9.94;52.43;96330.06;10365537;28;20228;-55
2022/04/13 01:20:22;;;;;;;10.23;5.20;;;;;;;10.05;51.60;96302.75;10366209;28;20199;-51
2022/04/13 01:25:22;;;;;;;11.73;5.93;;;;;;;10.07;51.72;96306.00;10365092;28;20248;-51
2022/04/13 01:30:24;;;;;;;9.83;3.80;;;;;;;10.15;50.62;96300.75;10366142;28;20219;-51
2022/04/13 01:35:24;;;;;;;15.70;6.37;;;;;;;10.06;51.42;96312.22;10363278;28;20612;-53
2022/04/13 01:40:25;;;;;;;10.87;5.77;;;;;;;10.00;51.33;96311.91;10366075;28;20197;-51
2022/04/13 01:45:25;;;;;;;14.77;7.33;;;;;;;9.77;52.35;96334.41;10364790;28;20220;-52
2022/04/13 01:50:25;;;;;;;11.03;4.90;;;;;;;9.86;52.02;96332.63;10365371;28;20197;-53
2022/04/13 01:55:26;;;;;;;14.53;7.37;;;;;;;9.85;51.98;96334.44;10365366;28;20217;-51
2022/04/13 02:00:26;;;;;;;12.33;5.80;;;;;;;9.93;51.62;96316.13;10373173;28;20193;-51
2022/04/13 02:05:27;;;;;;;12.73;6.57;;;;;;;9.92;52.15;96324.97;10372955;28;20343;-51
2022/04/13 02:10:27;;;;;;;11.60;5.50;;;;;;;9.90;52.03;96340.00;10372539;28;20217;-55
2022/04/13 02:15:28;;;;;;;7.60;4.13;;;;;;;9.93;52.01;96339.69;10372392;28;20224;-51
2022/04/13 02:20:29;;;;;;;12.87;6.50;;;;;;;9.79;52.59;96358.63;10372614;28;20201;-51
2022/04/13 02:25:29;;;;;;;13.57;5.63;;;;;;;9.75;52.91;96352.09;10372141;28;20217;-54
2022/04/13 02:30:30;;;;;;;11.03;6.10;;;;;;;9.64;53.21;96358.44;10372597;28;20231;-51
2022/04/13 02:35:30;;;;;;;11.30;5.30;;;;;;;9.76;52.71;96349.31;10371299;28;20229;-51
2022/04/13 02:40:31;;;;;;;13.73;6.93;;;;;;;9.65;53.28;96367.94;10372304;28;20272;-51
2022/04/13 02:45:31;;;;;;;11.67;6.77;;;;;;;9.71;52.95;96355.97;10371061;28;20210;-51
2022/04/13 02:50:31;;;;;;;9.50;5.67;;;;;;;9.67;52.90;96350.25;10370934;28;20660;-51
2022/04/13 02:55:32;;;;;;;8.87;4.97;;;;;;;9.60;54.01;96367.56;10369551;28;20252;-53
2022/04/13 03:00:32;;;;;;;17.67;5.83;;;;;;;9.34;54.77;96389.38;10369974;28;20189;-52
2022/04/13 03:05:33;;;;;;;11.33;5.33;;;;;;;9.34;55.06;96394.63;10364053;28;20300;-53
2022/04/13 03:10:34;;;;;;;12.10;5.40;;;;;;;9.42;54.78;96378.16;10361599;28;20275;-56
2022/04/13 03:15:34;;;;;;;10.27;5.00;;;;;;;9.47;54.42;96378.47;10362284;28;20626;-54
2022/04/13 03:20:35;;;;;;;10.93;6.37;;;;;;;9.16;55.87;96402.53;10362553;28;20562;-53
2022/04/13 03:25:35;;;;;;;10.00;6.33;;;;;;;9.04;56.38;96409.00;10362222;28;20671;-55
2022/04/13 03:30:35;;;;;;;15.10;6.80;;;;;;;9.16;56.04;96402.53;10362126;28;20200;-51
2022/04/13 03:35:36;;;;;;;8.73;5.43;;;;;;;9.43;55.00;96392.84;10362767;28;20324;-54
2022/04/13 03:40:36;;;;;;;10.43;5.30;;;;;;;9.45;54.98;96389.09;10362592;28;20877;-52
2022/04/13 03:45:36;;;;;;;10.37;5.70;;;;;;;9.37;55.52;96398.69;10361760;28;21079;-51
2022/04/13 03:50:37;;;;;;;10.73;5.13;;;;;;;9.35;55.19;96391.00;10362616;28;20331;-52
2022/04/13 03:55:37;;;;;;;9.50;5.00;;;;;;;9.37;55.23;96399.53;10361565;28;20271;-52
2022/04/13 04:00:38;;;;;;;14.50;6.53;;;;;;;9.00;56.57;96441.63;10362187;28;20193;-51
2022/04/13 04:05:38;;;;;;;13.27;7.17;;;;;;;8.85;57.13;96442.19;10368513;28;20259;-51
2022/04/13 04:10:38;;;;;;;13.67;5.37;;;;;;;8.77;57.54;96452.56;10368594;28;20193;-51
2022/04/13 04:15:39;;;;;;;15.03;4.10;;;;;;;8.93;56.89;96442.22;10367725;28;20227;-51
2022/04/13 04:20:39;;;;;;;8.83;5.83;;;;;;;8.80;57.80;96454.03;10367909;28;20213;-52
2022/04/13 04:25:40;;;;;;;15.57;5.93;;;;;;;8.78;57.73;96477.72;10367755;28;20683;-53
2022/04/13 04:30:41;;;;;;;5.30;3.67;;;;;;;8.96;56.93;96453.34;10367782;28;20197;-51
2022/04/13 04:35:46;;;;;;;11.70;5.83;;;;;;;8.91;57.48;96448.56;10367214;28;20241;-52
2022/04/13 04:40:47;;;;;;;13.53;5.97;;;;;;;8.87;57.73;96474.19;10367737;28;20201;-53
2022/04/13 04:45:47;;;;;;;15.33;7.33;;;;;;;8.79;58.40;96481.97;10366694;28;20189;-52
2022/04/13 04:50:47;;;;;;;12.33;6.20;;;;;;;8.86;58.29;96492.63;10366157;28;20608;-51
2022/04/13 04:55:48;;;;;;;10.07;5.80;;;;;;;8.89;58.67;96497.53;10366617;28;20217;-51
2022/04/13 05:00:48;;;;;;;14.10;6.80;;;;;;;8.99;58.52;96497.44;10366228;28;20193;-50
2022/04/13 05:05:48;;;;;;;10.03;6.57;;;;;;;9.14;58.13;96488.09;10366372;28;20199;-51
2022/04/13 05:10:51;;;;;;;12.27;7.17;;;;;;;9.14;58.69;96493.31;10365928;28;20276;-55
2022/04/13 05:15:52;;;;;;;12.63;8.27;;;;;;;9.29;58.04;96485.72;10364857;28;20213;-51
2022/04/13 05:20:53;;;;;;;13.43;7.07;;;;;;;9.53;57.12;96479.84;10365411;28;20193;-52
2022/04/13 05:25:53;;;;;;;10.33;5.17;;;;;;;9.85;56.69;96467.88;10366610;28;20284;-54
2022/04/13 05:30:54;;;;;;;10.10;5.57;;;;;;;10.23;56.11;96457.00;10365619;28;20233;-57
2022/04/13 05:35:54;;;;;;;11.10;5.77;;;;;;;10.51;55.46;96471.50;10364750;28;20220;-57
2022/04/13 05:40:55;;;;;;;8.37;4.33;;;;;;;10.89;54.77;96448.25;10365901;28;20254;-56
2022/04/13 05:45:55;;;;;;;9.27;4.63;;;;;;;11.30;53.20;96439.53;10365045;28;20180;-57
2022/04/13 05:50:56;;;;;;;9.03;5.07;;;;;;;11.41;54.06;96457.53;10365617;28;20196;-57
2022/04/13 05:55:57;;;;;;;12.47;5.03;;;;;;;11.74;53.88;96462.66;10364423;28;20217;-58
2022/04/13 06:00:57;;;;;;;17.40;5.97;;;;;;;11.99;52.29;96441.59;10396403;28;20219;-56
2022/04/13 06:05:58;;;;;;;10.25;6.45;;;;;;;11.73;52.84;96426.91;10405787;28;20214;-57
2022/04/13 06:10:58;;;;;;;8.27;4.70;;;;;;;11.83;53.42;96452.94;10405939;28;20570;-58
2022/04/13 06:15:58;;;;;;;9.43;5.43;;;;;;;11.98;52.25;96444.41;10406416;28;20580;-56
2022/04/13 06:20:59;;;;;;;9.57;5.70;;;;;;;12.27;51.66;96434.03;10406178;28;20757;-58
2022/04/13 06:25:59;;;;;;;13.13;6.47;;;;;;;12.56;51.80;96434.34;10405870;28;20262;-55
2022/04/13 06:31:01;;;;;;;15.25;6.55;;;;;;;12.59;51.24;96431.38;10375275;28;20197;-56
2022/04/13 06:36:05;;;;;;;10.82;5.85;;;;;;;12.74;51.31;96434.88;10360904;28;20221;-54
2022/04/13 06:41:05;;;;;;;12.00;5.22;;;;;;;12.73;50.35;96414.00;10360394;28;20220;-57
2022/04/13 06:46:06;;;;;;;9.93;5.68;;;;;;;12.72;50.55;96421.06;10366294;28;21032;-54
2022/04/13 06:51:06;;;;;;;12.27;6.35;;;;;;;12.72;51.16;96442.09;10370407;28;20279;-56
2022/04/13 06:56:07;;;;;;;9.85;5.80;;;;;;;12.74;50.46;96424.34;10367064;28;20291;-55
2022/04/13 07:01:08;;;;;;;12.57;5.07;;;;;;;12.99;49.65;96406.53;10367113;28;20299;-56
2022/04/13 07:06:09;;;;;;;8.38;4.93;;;;;;;12.91;49.74;96400.53;10364923;28;20711;-58
2022/04/13 07:11:09;;;;;;;10.23;4.18;;;;;;;13.02;49.47;96410.63;10366551;28;20324;-58
2022/04/13 07:16:09;;;;;;;13.55;6.10;;;;;;;13.26;49.98;96437.66;10365201;28;20228;-56
2022/04/13 07:21:10;;;;;;;12.32;6.07;;;;;;;13.33;48.98;96407.03;10368098;28;20213;-58
2022/04/13 07:26:11;;;;;;;8.13;4.68;;;;;;;13.44;48.49;96396.06;10366201;28;20336;-55
2022/04/13 07:31:12;;;;;;;8.52;4.65;;;;;;;13.69;48.36;96398.38;10363799;28;20611;-59
2022/04/13 07:41:16;;;;;;;8.48;5.53;;;;;;;14.25;48.33;96426.78;10318403;28;20221;-58
2022/04/13 07:46:17;;;;;;;7.22;3.65;;;;;;;14.45;47.37;96405.91;10325063;28;20205;-59
2022/04/13 07:51:17;;;;;;;6.32;3.50;;;;;;;14.65;46.16;96353.38;10299327;28;20224;-57
2022/04/13 07:56:17;;;;;;;7.45;3.60;;;;;;;14.83;46.52;96376.66;10286537;28;20280;-56
2022/04/13 08:07:42;;;;;;;7.72;4.15;;;;;;;15.12;45.85;96386.19;10300274;28;20210;-59
2022/04/13 08:12:46;;;;;;;8.50;5.03;;;;;;;15.58;45.19;96378.72;10325739;28;20684;-58
2022/04/13 08:17:46;;;;;;;7.80;4.93;;;;;;;15.69;44.41;96373.69;10327310;28;20222;-57
2022/04/13 08:22:47;;;;;;;8.75;4.00;;;;;;;15.77;43.94;96378.00;10325864;28;20190;-60
2022/04/13 08:27:47;;;;;;;7.28;4.78;;;;;;;15.91;43.40;96357.75;10325467;28;20221;-57
2022/04/13 08:32:48;;;;;;;5.28;2.88;;;;;;;15.79;44.11;96380.44;10323278;28;20307;-58
2022/04/13 08:37:48;;;;;;;9.00;5.28;;;;;;;16.41;43.02;96379.38;10306867;28;20241;-59
2022/04/13 08:43:03;;;;;;;6.85;4.63;;;;;;;16.55;42.59;96361.75;10325117;28;20204;-59
2022/04/13 08:48:05;;;;;;;15.52;4.93;;;;;;;16.48;43.52;96382.06;10318747;28;20216;-60
2022/04/13 08:53:12;;;;;;;7.22;5.13;;;;;;;16.79;43.03;96393.06;10324491;28;20225;-60
2022/04/13 08:58:24;;;;;;;7.50;4.75;;;;;;;16.46;43.22;96393.84;10323811;28;20673;-61
2022/04/13 09:03:38;;;;;;;12.43;4.78;;;;;;;17.00;43.11;96395.53;10307654;28;20229;-61
2022/04/13 09:08:50;;;;;;;11.18;7.10;;;;;;;16.95;42.57;96368.84;10324138;28;20301;-60
2022/04/13 09:13:51;;;;;;;6.57;4.55;;;;;;;17.53;41.14;96344.28;10323003;28;20217;-59
2022/04/13 09:18:51;;;;;;;8.30;4.65;;;;;;;18.18;41.81;96385.81;10324023;28;20202;-62
2022/04/13 09:23:51;;;;;;;6.20;3.75;;;;;;;18.72;40.69;96383.63;10324774;28;20189;-61
2022/04/13 09:28:52;;;;;;;8.10;4.30;;;;;;;18.30;40.73;96367.38;10324417;28;20223;-63
2022/04/13 09:33:52;;;;;;;9.43;5.05;;;;;;;17.57;40.59;96331.44;10324261;28;20229;-60
2022/04/13 09:38:54;;;;;;;9.82;4.78;;;;;;;17.39;40.93;96343.50;10312930;28;20401;-58
2022/04/13 09:43:55;;;;;;;5.93;3.70;;;;;;;18.52;40.79;96371.31;10284810;28;20182;-60
2022/04/13 09:49:18;;;;;;;8.68;3.72;;;;;;;18.42;38.48;96283.44;10320189;28;20289;-58
2022/04/13 09:54:23;;;;;;;5.75;3.70;;;;;;;18.52;39.60;96336.00;10300830;28;20736;-58
2022/04/13 09:59:28;;;;;;;6.95;3.67;;;;;;;18.25;40.40;96340.69;10323498;28;20233;-61
2022/04/13 10:04:29;;;;;;;6.28;3.30;;;;;;;18.75;38.27;96284.19;10322817;28;20526;-59
2022/04/13 10:09:31;;;;;;;8.40;3.47;;;;;;;19.67;37.38;96278.88;10323886;28;20218;-62
2022/04/13 10:14:31;;;;;;;5.97;3.50;;;;;;;20.44;35.22;96240.13;10323455;28;20590;-61
2022/04/13 10:19:32;;;;;;;3.80;3.00;;;;;;;19.70;35.45;96204.00;10326121;28;20205;-61
2022/04/13 10:24:34;;;;;;;6.18;2.67;;;;;;;19.67;35.81;96235.56;10326461;28;20186;-60
2022/04/13 10:29:37;;;;;;;5.38;2.55;;;;;;;20.08;35.02;96231.31;10330706;28;20218;-60
2022/04/13 10:34:39;;;;;;;4.82;2.72;;;;;;;19.77;37.39;96297.78;10315471;28;20252;-59
2022/04/13 10:39:41;;;;;;;5.63;2.72;;;;;;;20.23;35.50;96257.44;10331170;28;20253;-59
2022/04/13 10:45:14;;;;;;;3.40;2.53;;;;;;;19.85;33.77;96179.69;10330144;28;20190;-58
2022/04/13 10:50:16;;;;;;;2.28;2.03;;;;;;;20.48;33.84;96210.16;10296887;28;20237;-56
2022/04/13 10:55:19;;;;;;;4.85;2.33;;;;;;;19.71;33.07;96141.84;10311947;28;20226;-54
2022/04/13 11:00:20;;;;;;;3.20;1.98;;;;;;;19.48;31.43;96080.69;10327878;28;20269;-58
2022/04/13 11:05:22;;;;;;;4.82;2.40;;;;;;;20.09;32.51;96153.13;10310874;28;20221;-57
2022/04/13 11:10:23;;;;;;;6.43;2.65;;;;;;;19.92;32.32;96137.88;10310707;28;20241;-59
2022/04/13 11:15:43;;;;;;;4.82;2.67;;;;;;;19.73;32.03;96118.50;10327384;28;20321;-59
2022/04/13 11:20:58;;;;;;;3.47;2.40;;;;;;;20.16;30.99;96103.28;10323085;28;20214;-59
2022/04/13 11:26:01;;;;;;;5.40;2.95;;;;;;;19.89;32.58;96164.91;10311126;28;20192;-60
2022/04/13 11:31:09;;;;;;;7.70;2.55;;;;;;;20.08;31.74;96140.88;10328571;28;20214;-57
2022/04/13 11:36:09;;;;;;;6.13;3.10;;;;;;;19.56;33.36;96181.34;10328440;28;20232;-58
2022/04/13 11:41:10;;;;;;;7.53;3.40;;;;;;;19.21;33.31;96158.09;10328421;28;20716;-59
2022/04/13 11:46:32;;;;;;;4.95;2.97;;;;;;;19.01;34.31;96185.72;10328201;28;20197;-60
2022/04/13 11:51:34;;;;;;;5.57;3.00;;;;;;;20.04;34.27;96236.25;10327705;28;21031;-59
2022/04/13 11:56:47;;;;;;;5.72;3.42;;;;;;;20.07;33.34;96203.88;10320022;28;20214;-58
2022/04/13 12:01:54;;;;;;;6.13;3.10;;;;;;;20.14;32.68;96183.31;10305730;28;20194;-59
2022/04/13 12:06:54;;;;;;;6.30;3.50;;;;;;;20.02;31.63;96139.16;10310714;28;20317;-61
2022/04/13 12:11:55;;;;;;;10.55;3.97;;;;;;;19.47;35.46;96241.94;10327609;28;20186;-61
2022/04/13 12:16:57;;;;;;;7.75;3.75;;;;;;;20.05;32.15;96152.00;10327046;28;20233;-61
2022/04/13 12:21:57;;;;;;;7.65;3.85;;;;;;;20.52;34.10;96242.44;10327232;28;20232;-61
2022/04/13 12:26:57;;;;;;;8.88;4.88;;;;;;;20.56;31.89;96168.28;10306563;28;20784;-62
2022/04/13 12:31:58;;;;;;;13.50;5.15;;;;;;;19.84;33.49;96193.22;10318050;28;20715;-61
2022/04/13 12:37:01;;;;;;;9.82;4.75;;;;;;;20.19;34.75;96248.31;10300741;28;20615;-61
2022/04/13 12:42:03;;;;;;;9.70;5.15;;;;;;;19.84;34.57;96225.91;10314896;28;20217;-60
2022/04/13 12:47:08;;;;;;;18.08;6.72;;;;;;;20.49;34.89;96275.66;10308547;28;20650;-60
2022/04/13 12:52:09;;;;;;;8.57;5.00;;;;;;;19.65;35.67;96265.00;10283772;28;20285;-60
2022/04/13 12:57:11;;;;;;;10.98;5.68;;;;;;;19.81;36.21;96282.19;10292564;28;20729;-61
2022/04/13 13:02:18;;;;;;;10.88;5.78;;;;;;;20.11;35.87;96284.84;10324685;28;20194;-59
2022/04/13 13:07:27;;;;;;;9.32;4.95;;;;;;;20.16;36.07;96286.81;10325688;28;20281;-61
2022/04/13 13:12:28;;;;;;;8.70;5.07;;;;;;;20.11;34.00;96206.91;10324853;28;20288;-59
2022/04/13 13:17:34;;;;;;;10.65;5.88;;;;;;;19.50;35.69;96246.00;10324926;28;20264;-60
2022/04/13 13:22:38;;;;;;;10.27;5.72;;;;;;;19.47;37.44;96313.66;10312312;28;20194;-60
2022/04/13 13:27:42;;;;;;;13.38;6.13;;;;;;;18.59;38.04;96298.81;10302967;28;20233;-60
2022/04/13 13:32:47;;;;;;;12.23;7.13;;;;;;;18.15;38.49;96299.56;10302947;28;20201;-60
2022/04/13 13:37:49;;;;;;;14.63;7.47;;;;;;;18.31;39.29;96335.34;10299092;28;20235;-60
2022/04/13 13:42:49;;;;;;;15.68;7.63;;;;;;;17.91;39.44;96326.84;10359398;23;20628;-61
2022/04/13 13:47:49;;;;;;;17.58;7.63;;;;;;;18.09;39.39;96329.56;10445888;28;20211;-57
2022/04/13 13:52:50;;;;;;;13.18;8.15;;;;;;;17.96;39.45;96322.53;10448291;28;20226;-59
2022/04/13 13:57:51;;;;;;;12.88;7.28;;;;;;;18.12;40.57;96363.59;10455104;28;20220;-58
2022/04/13 14:02:54;;;;;;;14.52;7.30;;;;;;;18.57;40.12;96375.16;10452908;28;20216;-60
2022/04/13 14:07:56;;;;;;;15.27;7.10;;;;;;;18.34;41.09;96390.59;10445546;28;20200;-59
2022/04/13 14:12:57;;;;;;;12.48;7.57;;;;;;;18.64;40.03;96366.13;10413315;28;20280;-61
2022/04/13 14:17:57;;;;;;;14.25;7.85;;;;;;;18.48;40.41;96378.09;10412999;28;20212;-57
2022/04/13 14:22:57;;;;;;;13.65;7.80;;;;;;;18.74;41.00;96404.63;10413206;28;20374;-57
2022/04/13 14:27:58;;;;;;;11.93;7.43;;;;;;;18.62;41.92;96421.25;10412739;28;20204;-58
2022/04/13 14:32:59;;;;;;;14.52;8.20;;;;;;;18.90;41.31;96412.09;10415936;28;20215;-59
2022/04/13 14:37:59;;;;;;;13.75;7.68;;;;;;;19.33;40.84;96423.78;10454362;28;20246;-61
2022/04/13 14:43:00;;;;;;;17.33;7.97;;;;;;;19.71;39.59;96394.34;10453325;28;20296;-60
2022/04/13 14:48:00;;;;;;;13.60;7.50;;;;;;;19.00;40.80;96407.09;10452944;28;20187;-61
2022/04/13 14:53:00;;;;;;;17.02;8.13;;;;;;;18.94;40.65;96391.22;10451342;28;20364;-64
2022/04/13 14:58:01;;;;;;;13.13;7.50;;;;;;;18.99;40.57;96394.03;10453121;28;20227;-60
2022/04/13 15:03:01;;;;;;;18.10;8.70;;;;;;;18.72;41.07;96404.84;10450555;28;20239;-60
2022/04/13 15:08:02;;;;;;;14.75;8.07;;;;;;;18.72;41.71;96426.06;10451221;28;20188;-58
2022/04/13 15:13:02;;;;;;;16.52;8.95;;;;;;;18.88;41.13;96414.97;10452243;28;20215;-59
2022/04/13 15:18:02;;;;;;;19.88;9.65;;;;;;;18.64;41.70;96415.72;10447500;28;20212;-61
2022/04/13 15:23:03;;;;;;;20.75;10.10;;;;;;;18.17;42.84;96435.34;10448937;28;20218;-57
2022/04/13 15:28:03;;;;;;;22.52;8.75;;;;;;;19.05;42.31;96449.75;10449342;28;20191;-56
2022/04/13 15:33:04;;;;;;;19.15;10.35;;;;;;;20.23;41.02;96441.81;10448321;28;20208;-55
2022/04/13 15:38:05;;;;;;;17.58;10.10;;;;;;;19.88;40.56;96421.16;10447805;28;20215;-57
2022/04/13 15:43:07;;;;;;;18.70;11.73;;;;;;;20.19;40.52;96421.19;10437890;28;20248;-58
2022/04/13 15:48:08;;;;;;;18.20;10.13;;;;;;;19.67;41.98;96442.84;10409863;28;20199;-56
2022/04/13 15:53:09;;;;;;;20.73;9.73;;;;;;;20.06;41.27;96432.78;10445847;28;20212;-57
2022/04/13 15:58:09;;;;;;;22.25;9.95;;;;;;;20.20;40.67;96420.97;10449673;28;20204;-60
2022/04/13 16:03:10;;;;;;;31.02;18.75;;;;;;;19.89;41.88;96451.19;10450001;28;20694;-56
2022/04/13 16:08:13;;;;;;;32.22;17.10;;;;;;;19.96;42.38;96476.69;10450209;28;21022;-59
2022/04/13 16:13:14;;;;;;;21.75;10.95;;;;;;;20.50;40.28;96425.47;10448991;28;20212;-58
2022/04/13 16:18:15;;;;;;;19.92;10.65;;;;;;;20.74;39.99;96422.91;10449869;28;20964;-59
2022/04/13 16:23:16;;;;;;;23.35;11.25;;;;;;;19.27;42.93;96449.34;10449358;28;20212;-60
2022/04/13 16:28:16;;;;;;;24.80;11.35;;;;;;;19.33;42.95;96459.09;10432696;28;20180;-58
2022/04/13 16:33:17;;;;;;;22.65;9.98;;;;;;;19.20;44.44;96491.09;10427709;28;20211;-60
2022/04/13 16:38:20;;;;;;;18.38;9.68;;;;;;;18.87;44.67;96484.19;10431440;28;20689;-60
2022/04/13 16:43:21;;;;;;;26.55;10.93;;;;;;;17.99;45.54;96480.31;10434988;28;20235;-60
2022/04/13 16:48:21;;;;;;;20.50;11.02;;;;;;;17.70;46.53;96498.28;10434176;28;20188;-61
2022/04/13 16:53:21;;;;;;;21.45;8.73;;;;;;;17.29;46.93;96508.13;10437365;28;20819;-61
2022/04/13 16:58:22;;;;;;;19.60;10.57;;;;;;;17.08;48.26;96534.78;10435351;28;20243;-61
2022/04/13 17:03:22;;;;;;;22.45;10.52;;;;;;;16.88;48.89;96553.28;10449684;28;20219;-58
2022/04/13 17:08:23;;;;;;;21.70;10.98;;;;;;;16.51;49.68;96563.31;10448977;28;20199;-59
2022/04/13 17:13:23;;;;;;;20.35;10.00;;;;;;;16.39;50.60;96571.78;10448689;28;20211;-58
2022/04/13 17:18:23;;;;;;;21.33;9.88;;;;;;;16.17;51.10;96572.91;10448798;28;20227;-58
2022/04/13 17:23:24;;;;;;;24.88;11.18;;;;;;;16.12;51.33;96580.59;10448084;28;20212;-58
2022/04/13 17:28:24;;;;;;;21.13;10.27;;;;;;;15.73;52.88;96610.97;10447991;28;20187;-59
2022/04/13 17:33:24;;;;;;;18.42;9.40;;;;;;;15.58;53.52;96632.22;10447554;28;20215;-57
2022/04/13 17:38:26;;;;;;;20.42;10.20;;;;;;;15.40;55.24;96662.50;10448622;28;20273;-58
2022/04/13 17:43:27;;;;;;;19.48;10.20;;;;;;;15.07;56.02;96670.91;10447693;28;20270;-57
2022/04/13 17:48:27;;;;;;;15.82;8.40;;;;;;;14.72;57.75;96699.69;10447740;28;20645;-57
2022/04/13 17:53:28;;;;;;;18.42;9.55;;;;;;;14.36;58.92;96703.00;10447987;28;20222;-53
2022/04/13 17:58:30;;;;;;;18.23;8.88;;;;;;;13.79;61.20;96704.34;10447429;28;20276;-57
2022/04/13 18:03:31;;;;;;;16.38;8.30;;;;;;;13.75;61.47;96695.16;10447821;28;20208;-56
2022/04/13 18:08:31;;;;;;;21.60;9.40;;;;;;;13.53;62.39;96697.63;10447719;28;20674;-53
2022/04/13 18:13:31;;;;;;;16.88;9.40;;;;;;;13.30;63.91;96699.41;10447538;28;20215;-52
2022/04/13 18:18:38;;;;;;;17.38;8.02;;;;;;;13.30;63.85;96691.50;10438041;28;20268;-54
2022/04/13 18:23:39;;;;;;;15.88;8.95;;;;;;;13.01;65.22;96704.31;10432508;28;20224;-52
2022/04/13 18:28:39;;;;;;;18.38;9.18;;;;;;;12.90;65.27;96699.44;10429411;28;20227;-53
2022/04/13 18:33:40;;;;;;;20.45;9.38;;;;;;;12.84;65.67;96700.94;10422714;28;20306;-56
2022/04/13 18:38:40;;;;;;;20.15;9.18;;;;;;;12.75;66.24;96707.22;10424843;28;20313;-52
2022/04/13 18:43:41;;;;;;;20.02;8.65;;;;;;;12.74;66.23;96696.88;10450877;28;20326;-55
2022/04/13 18:48:41;;;;;;;16.50;7.95;;;;;;;12.64;66.36;96699.72;10453806;28;20199;-52
2022/04/13 18:53:41;;;;;;;13.85;8.13;;;;;;;12.49;67.01;96696.97;10452671;28;20231;-55
2022/04/13 18:58:42;;;;;;;16.50;8.20;;;;;;;12.52;66.89;96703.69;10453786;28;20283;-53
2022/04/13 19:03:42;;;;;;;20.20;7.80;;;;;;;12.47;67.33;96702.38;10453509;28;20227;-52
2022/04/13 19:08:51;;;;;;;16.27;7.53;;;;;;;12.25;68.12;96703.94;10441498;28;20192;-54
2022/04/13 19:13:51;;;;;;;13.57;7.10;;;;;;;12.19;68.52;96709.00;10431150;28;20295;-59
2022/04/13 19:18:52;;;;;;;18.13;8.07;;;;;;;12.01;69.10;96704.78;10433181;28;20197;-56
2022/04/13 19:23:53;;;;;;;15.05;7.35;;;;;;;11.97;69.54;96700.03;10430502;28;20208;-52
2022/04/13 19:28:53;;;;;;;14.63;7.70;;;;;;;11.91;70.24;96701.47;10447749;28;20192;-54
2022/04/13 19:33:53;;;;;;;14.00;7.15;;;;;;;11.78;70.65;96707.22;10452143;28;20709;-52
2022/04/13 19:38:54;;;;;;;17.42;7.25;;;;;;;11.73;70.60;96699.84;10443363;28;20279;-52
2022/04/13 19:43:54;;;;;;;13.85;6.68;;;;;;;11.70;70.57;96683.59;10451673;28;20733;-56
2022/04/13 19:48:55;;;;;;;16.27;7.83;;;;;;;11.84;69.31;96664.56;10416879;22;20825;-59
2022/04/13 19:53:55;;;;;;;13.60;7.20;;;;;;;11.67;70.51;96671.63;10398771;28;20228;-59
2022/04/13 19:58:56;;;;;;;13.87;7.40;;;;;;;11.70;70.07;96663.44;10372155;28;20216;-59
2022/04/13 20:03:57;;;;;;;12.07;6.30;;;;;;;11.85;68.66;96649.63;10372523;28;20196;-59
2022/04/13 20:08:57;;;;;;;15.77;6.20;;;;;;;11.81;69.42;96656.19;10371914;28;20587;-60
2022/04/13 20:13:57;;;;;;;10.80;6.05;;;;;;;11.71;69.46;96669.50;10372045;28;20217;-57
2022/04/13 20:18:58;;;;;;;10.80;6.00;;;;;;;11.71;68.92;96656.38;10345512;28;20221;-59
2022/04/13 20:23:58;;;;;;;16.80;6.55;;;;;;;11.63;69.22;96657.19;10329133;28;20288;-58
2022/04/13 20:28:58;;;;;;;13.18;6.30;;;;;;;11.53;69.60;96657.38;10330450;28;20217;-60
2022/04/13 20:33:59;;;;;;;12.43;5.93;;;;;;;11.64;68.81;96632.59;10331053;28;20228;-54
2022/04/13 20:38:59;;;;;;;10.98;6.43;;;;;;;11.69;68.46;96629.47;10330090;28;20308;-59
2022/04/13 20:43:59;;;;;;;11.07;6.10;;;;;;;11.43;70.17;96654.88;10330550;28;20248;-54
2022/04/13 20:49:00;;;;;;;13.43;6.77;;;;;;;11.40;70.02;96642.09;10329325;28;20246;-58
2022/04/13 20:54:01;;;;;;;15.27;6.00;;;;;;;11.28;70.14;96659.13;10329945;28;20429;-55
2022/04/13 20:59:01;;;;;;;10.80;5.60;;;;;;;11.28;70.07;96653.91;10329787;28;20221;-59
2022/04/13 21:04:01;;;;;;;11.83;6.67;;;;;;;11.50;69.18;96639.34;10328815;28;20339;-56
2022/04/13 21:09:03;;;;;;;12.00;5.60;;;;;;;11.61;68.53;96632.94;10329087;28;20617;-60
2022/04/13 21:14:03;;;;;;;12.60;5.93;;;;;;;11.64;68.26;96616.84;10329534;28;20218;-54
2022/04/13 21:19:03;;;;;;;15.27;6.40;;;;;;;11.67;67.91;96621.78;10329100;28;20718;-59
2022/04/13 21:24:04;;;;;;;12.50;6.03;;;;;;;11.75;67.03;96616.50;10330040;28;20222;-54
2022/04/13 21:29:04;;;;;;;11.87;6.27;;;;;;;11.74;67.46;96611.44;10328963;28;20590;-56
2022/04/13 21:34:05;;;;;;;11.40;5.80;;;;;;;11.74;67.08;96617.47;10329696;28;20329;-57
2022/04/13 21:39:05;;;;;;;14.07;7.35;;;;;;;11.71;67.66;96615.19;10328696;28;20218;-55
2022/04/13 21:44:06;;;;;;;11.97;7.07;;;;;;;11.54;67.77;96629.31;10329369;28;20212;-56
2022/04/13 21:49:06;;;;;;;9.07;6.00;;;;;;;11.47;68.56;96633.56;10328220;28;20324;-56
2022/04/13 21:54:06;;;;;;;13.40;7.07;;;;;;;11.46;68.62;96632.75;10328721;28;20212;-59
2022/04/13 21:59:07;;;;;;;12.50;7.50;;;;;;;11.59;67.62;96627.00;10328829;28;20557;-54
2022/04/13 22:04:08;;;;;;;13.93;6.67;;;;;;;11.45;69.08;96643.44;10328363;28;20208;-59
2022/04/13 22:09:08;;;;;;;12.77;7.10;;;;;;;11.40;68.98;96631.59;10328507;28;20217;-54
2022/04/13 22:14:08;;;;;;;18.63;6.63;;;;;;;11.47;68.21;96636.19;10331322;28;20218;-61
2022/04/13 22:19:09;;;;;;;14.30;6.60;;;;;;;11.55;67.71;96641.47;10336164;28;20213;-57
2022/04/13 22:24:09;;;;;;;13.27;6.63;;;;;;;11.40;68.47;96657.84;10336464;28;20190;-54
2022/04/13 22:29:10;;;;;;;18.40;7.27;;;;;;;11.55;67.79;96641.47;10335526;28;20220;-54
2022/04/13 22:34:10;;;;;;;11.77;6.27;;;;;;;11.64;67.37;96639.63;10336074;28;20214;-54
2022/04/13 22:39:11;;;;;;;13.37;6.97;;;;;;;11.60;68.28;96644.41;10335181;28;20218;-56
2022/04/13 22:44:11;;;;;;;15.70;7.13;;;;;;;11.65;67.88;96644.72;10335487;28;20288;-54
2022/04/13 22:49:11;;;;;;;14.03;6.90;;;;;;;11.62;67.46;96644.25;10334716;28;20233;-55
2022/04/13 22:54:12;;;;;;;14.37;7.30;;;;;;;11.67;67.44;96634.06;10335041;28;20226;-55
2022/04/13 22:59:14;;;;;;;13.00;6.53;;;;;;;11.62;67.48;96639.00;10334503;28;20687;-54
2022/04/13 23:04:14;;;;;;;18.17;7.07;;;;;;;11.28;69.45;96659.13;10334688;28;20202;-54
2022/04/13 23:09:14;;;;;;;12.73;6.27;;;;;;;11.46;67.77;96639.81;10334354;28;20708;-54
2022/04/13 23:14:15;;;;;;;11.87;6.07;;;;;;;11.27;69.09;96651.44;10334304;28;20583;-55
2022/04/13 23:19:16;;;;;;;12.10;6.57;;;;;;;11.04;70.19;96660.75;10334001;28;20225;-58
2022/04/13 23:24:16;;;;;;;10.17;6.00;;;;;;;10.92;70.67;96656.78;10334679;28;20269;-57